Mead, West Virginia
Current Conditions -  °F | °C
As of 4:27 AM on Friday 24 Oct 2014 (Local Time) from KBKW Reporting Station
Haze Haze  
Wind Chill: 33°   Ceiling: Unl
Heat Index: 37°   Visibility: 5mi
Dew Point: 35°   Wind: 5mph
Humidity: 93%   Direction: 200°SSW
Pressure: 30.11"   Gusts: NA
Location:  37.6245°N, 81.2855°W
Report Text: KBKW 240827Z AUTO 20004KT 5SM BR SCT023 03/02 A3011 RMK AO2 T00280017 TSNO
Loading
Personal Weather Stations






























Interactive Weather Map
Tropical Storm Tracking
New forecast layout! Learn more

10-Day Weather Forecast

Advertisements
Track Severe Weather on mobile